Time;durP1;ratioP1;P1;durP2;ratioP2;P2;SDS_P1;SDS_P2;PMS_P1;PMS_P2;Temp;Humidity;BMP_temperature;BMP_pressure;BME280_temperature;BME280_humidity;BME280_pressure;Samples;Min_cycle;Max_cycle;Signal;HPM_P1;HPM_P2
2022/05/03 00:02:14;;;;;;;16.05;7.92;;;;;;;6.79;70.22;100084.37;1717143;83;21054;-71
2022/05/03 00:05:24;;;;;;;13.30;7.72;;;;;;;6.74;70.50;100076.62;1716524;83;21044;-69
2022/05/03 00:08:03;;;;;;;13.72;7.47;;;;;;;6.71;71.18;100073.59;1717240;82;21039;-70
2022/05/03 00:10:46;;;;;;;15.50;7.80;;;;;;;6.68;71.10;100068.90;1716510;83;21110;-72
2022/05/03 00:13:18;;;;;;;18.27;9.35;;;;;;;6.65;71.26;100069.83;1716868;83;21951;-69
2022/05/03 00:15:47;;;;;;;16.90;9.08;;;;;;;6.61;70.96;100068.63;1717426;83;21007;-71
2022/05/03 00:18:13;;;;;;;15.48;8.90;;;;;;;6.58;70.55;100064.33;1716981;82;21108;-71
2022/05/03 00:20:40;;;;;;;15.32;8.50;;;;;;;6.56;70.60;100058.71;1717291;83;21070;-72
2022/05/03 00:23:07;;;;;;;16.52;8.38;;;;;;;6.56;70.74;100062.64;1717116;82;21014;-72
2022/05/03 00:25:35;;;;;;;14.90;8.45;;;;;;;6.57;70.90;100066.96;1717219;82;21151;-71
2022/05/03 00:28:02;;;;;;;15.95;8.33;;;;;;;6.62;71.11;100062.48;1717043;82;21105;-71
2022/05/03 00:30:29;;;;;;;13.53;7.00;;;;;;;6.66;70.54;100067.61;1717335;82;21007;-73
2022/05/03 00:32:56;;;;;;;10.58;6.87;;;;;;;6.71;70.25;100060.97;1764406;81;21065;-71
2022/05/03 00:35:24;;;;;;;10.23;6.45;;;;;;;6.75;70.46;100061.33;1771220;81;21017;-71
2022/05/03 00:37:50;;;;;;;11.18;6.85;;;;;;;6.77;70.22;100058.23;1771580;81;21206;-70
2022/05/03 00:40:18;;;;;;;12.25;6.20;;;;;;;6.77;69.95;100056.92;1771237;81;21572;-71
2022/05/03 00:43:05;;;;;;;11.38;5.92;;;;;;;6.79;69.77;100059.06;1771634;81;21037;-72
2022/05/03 00:45:37;;;;;;;14.43;7.00;;;;;;;6.83;69.16;100058.52;1770734;81;21041;-71
2022/05/03 00:48:50;;;;;;;14.53;6.90;;;;;;;6.86;69.15;100059.33;1771609;81;21061;-70
2022/05/03 00:51:22;;;;;;;12.20;7.40;;;;;;;6.86;69.04;100051.47;1771473;81;21148;-70
2022/05/03 00:54:20;;;;;;;13.35;7.72;;;;;;;6.85;68.84;100047.12;1771274;81;21163;-72
2022/05/03 00:56:59;;;;;;;16.25;7.53;;;;;;;6.85;68.89;100054.97;1793323;79;21150;-71
2022/05/03 00:59:54;;;;;;;14.15;8.15;;;;;;;6.84;68.67;100040.17;1786813;79;21069;-70
2022/05/03 01:02:29;;;;;;;12.60;8.20;;;;;;;6.84;68.84;100038.86;1786854;79;20991;-71
2022/05/03 01:05:10;;;;;;;15.95;8.40;;;;;;;6.82;69.06;100040.66;1787418;79;21196;-70
2022/05/03 01:07:48;;;;;;;13.55;7.30;;;;;;;6.80;68.86;100035.89;1787224;80;21026;-71
2022/05/03 01:10:34;;;;;;;13.40;6.85;;;;;;;6.80;69.12;100031.97;1787638;79;21026;-71
2022/05/03 01:13:32;;;;;;;10.00;6.37;;;;;;;6.79;69.04;100034.19;1787801;79;21029;-72
2022/05/03 01:16:22;;;;;;;14.15;7.55;;;;;;;6.81;68.96;100037.64;1789257;79;21050;-70
2022/05/03 01:19:00;;;;;;;13.75;7.87;;;;;;;6.83;69.21;100034.54;1788864;79;21167;-71
2022/05/03 01:21:41;;;;;;;15.60;7.05;;;;;;;6.86;68.96;100032.30;1789158;79;21589;-70
2022/05/03 01:24:38;;;;;;;11.00;6.35;;;;;;;6.88;68.78;100031.36;1789240;79;21013;-70
2022/05/03 01:27:17;;;;;;;9.55;5.67;;;;;;;6.93;68.99;100022.94;1788636;80;20998;-71
2022/05/03 01:29:46;;;;;;;15.23;7.10;;;;;;;7.00;68.56;100030.20;1788660;79;21034;-72
2022/05/03 01:32:13;;;;;;;13.28;7.70;;;;;;;7.11;67.27;100023.41;1786005;79;21235;-70
2022/05/03 01:34:41;;;;;;;13.75;8.00;;;;;;;7.24;66.25;100028.73;1783642;80;20979;-69
2022/05/03 01:37:34;;;;;;;12.43;7.20;;;;;;;7.33;65.53;100021.95;1783793;80;21036;-70
2022/05/03 01:40:12;;;;;;;12.20;7.28;;;;;;;7.43;65.11;100030.45;1781478;80;21047;-70
2022/05/03 01:43:00;;;;;;;10.50;6.42;;;;;;;7.53;64.27;100031.08;1754699;80;21035;-70
2022/05/03 01:45:51;;;;;;;11.85;6.50;;;;;;;7.60;63.86;100020.84;1782277;80;21250;-70
2022/05/03 01:51:57;;;;;;;13.15;7.35;;;;;;;7.76;63.30;100020.83;1782226;80;21059;-70
2022/05/03 01:54:49;;;;;;;11.48;6.55;;;;;;;7.83;63.20;100023.30;1782140;80;21042;-72
2022/05/03 01:57:40;;;;;;;11.88;6.53;;;;;;;7.87;62.69;100019.69;1768747;80;21055;-70
2022/05/03 02:00:10;;;;;;;14.33;7.30;;;;;;;7.93;62.82;100020.81;1741790;80;21281;-70
2022/05/03 02:03:09;;;;;;;16.52;7.53;;;;;;;7.95;62.83;100011.14;1768973;81;21056;-69
2022/05/03 02:06:00;;;;;;;15.28;7.10;;;;;;;7.97;62.72;100012.81;1766821;80;21059;-71
2022/05/03 02:08:49;;;;;;;15.63;8.30;;;;;;;7.99;61.93;100015.41;1768781;81;22146;-70
2022/05/03 02:11:46;;;;;;;12.15;7.12;;;;;;;8.02;62.04;100015.31;1768844;81;21055;-71
2022/05/03 02:17:14;;;;;;;13.62;7.25;;;;;;;8.07;62.05;100013.41;1751977;81;21024;-71
2022/05/03 02:20:29;;;;;;;16.27;7.30;;;;;;;8.09;61.93;100011.60;1768651;81;21047;-70
2022/05/03 02:23:44;;;;;;;15.18;6.92;;;;;;;8.11;62.25;100016.81;1768838;81;21539;-70
2022/05/03 02:26:40;;;;;;;16.70;7.80;;;;;;;8.13;62.62;100010.62;1768175;80;21079;-71
2022/05/03 02:29:19;;;;;;;11.95;7.25;;;;;;;8.15;62.91;100011.44;1769107;81;21115;-70
2022/05/03 02:32:05;;;;;;;13.78;6.53;;;;;;;8.17;63.51;100014.02;1778436;80;21086;-70
2022/05/03 02:34:55;;;;;;;12.90;6.92;;;;;;;8.17;63.58;100021.44;1794917;80;21078;-71
2022/05/03 02:37:25;;;;;;;14.35;7.83;;;;;;;8.17;63.79;100016.19;1795181;79;20995;-70
2022/05/03 02:39:59;;;;;;;14.47;7.50;;;;;;;8.18;63.32;100010.03;1724363;82;21049;-70
2022/05/03 02:42:26;;;;;;;16.50;7.35;;;;;;;8.19;62.97;100011.77;1724344;82;21299;-70
2022/05/03 02:44:56;;;;;;;14.80;7.08;;;;;;;8.23;62.45;100008.58;1795089;80;20983;-70
2022/05/03 02:47:48;;;;;;;22.70;7.50;;;;;;;8.29;62.06;100023.30;1795160;79;21081;-71
2022/05/03 02:50:21;;;;;;;18.25;7.35;;;;;;;8.30;62.74;100015.82;1724429;83;21747;-70
2022/05/03 02:53:03;;;;;;;19.00;7.78;;;;;;;8.31;62.80;100012.31;1724437;82;21042;-70
2022/05/03 02:55:38;;;;;;;10.03;6.25;;;;;;;8.34;62.58;100008.27;1724401;82;21067;-70
2022/05/03 02:58:16;;;;;;;16.62;7.25;;;;;;;8.38;62.05;100019.09;1729662;83;21054;-71
2022/05/03 03:04:22;;;;;;;16.25;8.80;;;;;;;8.46;61.78;100020.20;1729693;83;21121;-71
2022/05/03 03:06:48;;;;;;;13.60;6.12;;;;;;;8.51;61.64;100020.48;1729541;83;21057;-69
2022/05/03 03:09:20;;;;;;;18.37;7.47;;;;;;;8.55;61.99;100027.80;1729724;83;21242;-72
2022/05/03 03:11:59;;;;;;;13.38;7.97;;;;;;;8.60;62.01;100018.89;1729763;83;21026;-71
2022/05/03 03:14:37;;;;;;;12.82;6.92;;;;;;;8.64;62.20;100007.83;1729011;82;21006;-70
2022/05/03 03:17:08;;;;;;;13.38;7.08;;;;;;;8.69;62.31;100022.97;1729535;83;21535;-71
2022/05/03 03:20:02;;;;;;;17.60;7.60;;;;;;;8.76;62.06;100023.64;1800787;79;21018;-72
2022/05/03 03:22:41;;;;;;;17.02;7.35;;;;;;;8.82;62.32;100020.84;1729783;82;21156;-70
2022/05/03 03:25:12;;;;;;;16.32;7.67;;;;;;;8.89;62.16;100014.94;1729232;83;21578;-71
2022/05/03 03:27:40;;;;;;;15.35;7.50;;;;;;;8.94;61.62;100012.56;1729907;83;21002;-71
2022/05/03 03:30:09;;;;;;;12.15;6.90;;;;;;;9.01;61.11;100018.48;1771400;79;21054;-72
2022/05/03 03:32:42;;;;;;;14.65;6.65;;;;;;;9.03;61.36;100021.45;1781085;79;21023;-70
2022/05/03 03:35:09;;;;;;;11.22;5.92;;;;;;;9.12;60.96;100018.14;1774224;80;21112;-71
2022/05/03 03:37:35;;;;;;;11.95;6.28;;;;;;;9.19;60.65;100020.96;1774200;80;21333;-71
2022/05/03 03:40:04;;;;;;;12.13;6.95;;;;;;;9.28;60.13;100024.59;1774038;80;21045;-71
2022/05/03 03:42:31;;;;;;;10.95;6.42;;;;;;;9.34;59.41;100015.20;1774144;80;21042;-71
2022/05/03 03:45:10;;;;;;;13.75;6.58;;;;;;;9.42;59.50;100024.98;1774068;80;21571;-71
2022/05/03 03:47:39;;;;;;;10.00;6.20;;;;;;;9.51;59.00;100020.34;1773681;80;20992;-71
2022/05/03 03:50:07;;;;;;;12.58;6.17;;;;;;;9.60;58.48;100027.91;1774101;80;25758;-71
2022/05/03 03:52:36;;;;;;;12.78;6.55;;;;;;;9.68;58.69;100021.91;1773885;80;21042;-71
2022/05/03 03:55:05;;;;;;;12.20;7.45;;;;;;;9.75;58.24;100022.09;1773917;80;21610;-70
2022/05/03 03:57:32;;;;;;;14.00;7.72;;;;;;;9.84;57.76;100029.66;1739347;80;20995;-71
2022/05/03 04:00:02;;;;;;;13.93;7.78;;;;;;;9.92;57.98;100023.29;1714690;80;21428;-71
2022/05/03 04:02:32;;;;;;;16.45;7.00;;;;;;;10.00;57.86;100025.17;1772638;80;21019;-71
2022/05/03 04:05:01;;;;;;;17.17;6.92;;;;;;;10.06;57.72;100025.81;1738940;80;21070;-71
2022/05/03 04:07:27;;;;;;;13.68;6.65;;;;;;;10.16;57.56;100025.00;1773924;80;21057;-71
2022/05/03 04:09:54;;;;;;;14.23;6.42;;;;;;;10.26;57.09;100017.19;1774096;80;21591;-70
2022/05/03 04:12:21;;;;;;;11.95;6.12;;;;;;;10.34;57.00;100014.75;1774113;80;21563;-73
2022/05/03 04:14:48;;;;;;;15.90;6.00;;;;;;;10.43;56.22;100011.77;1773842;80;21087;-71
2022/05/03 04:17:17;;;;;;;13.70;6.00;;;;;;;10.55;56.05;100006.02;1773742;80;21015;-70
2022/05/03 04:19:44;;;;;;;11.28;5.42;;;;;;;10.66;55.57;100020.95;1773807;80;21545;-72
2022/05/03 04:22:28;;;;;;;25.23;7.00;;;;;;;10.78;55.79;100011.70;1774232;80;21698;-73
2022/05/03 04:24:56;;;;;;;20.57;6.75;;;;;;;10.89;56.14;100016.55;1773771;80;21580;-72
2022/05/03 04:27:22;;;;;;;15.48;6.65;;;;;;;11.00;55.90;100018.30;1774080;80;21071;-71
2022/05/03 04:29:49;;;;;;;15.38;6.60;;;;;;;11.15;56.26;100017.27;1773963;80;21575;-72
2022/05/03 04:32:16;;;;;;;9.50;5.60;;;;;;;11.30;56.44;100019.28;1789762;79;21002;-72
2022/05/03 04:34:42;;;;;;;9.68;5.40;;;;;;;11.42;54.18;100016.58;1800386;79;21516;-71
2022/05/03 04:37:09;;;;;;;15.53;6.67;;;;;;;11.57;53.98;100013.73;1800278;79;21135;-71
2022/05/03 04:39:36;;;;;;;11.95;6.42;;;;;;;11.74;54.77;100004.65;1800174;79;21031;-71
2022/05/03 04:42:04;;;;;;;16.93;6.58;;;;;;;11.87;56.00;100001.91;1800336;79;20999;-71
2022/05/03 04:44:31;;;;;;;13.13;6.37;;;;;;;11.91;56.80;99996.86;1800502;79;21406;-72
2022/05/03 04:46:58;;;;;;;13.45;6.67;;;;;;;11.94;56.65;99998.06;1800240;79;21085;-72
2022/05/03 04:49:25;;;;;;;13.78;6.80;;;;;;;12.01;57.04;100000.41;1729545;83;21321;-70
2022/05/03 04:51:52;;;;;;;11.33;5.83;;;;;;;12.06;56.99;99991.84;1800288;79;21014;-73
2022/05/03 04:54:18;;;;;;;9.45;5.28;;;;;;;12.10;56.46;99990.31;1800509;79;21678;-72
2022/05/03 04:56:57;;;;;;;12.75;6.08;;;;;;;12.20;56.10;99993.37;1727726;83;21007;-72
2022/05/03 04:59:23;;;;;;;16.70;6.42;;;;;;;12.28;57.14;99997.83;1722955;82;21034;-72
2022/05/03 05:01:54;;;;;;;15.48;6.60;;;;;;;12.32;56.57;99998.55;1711372;83;22062;-74
2022/05/03 05:04:23;;;;;;;11.95;5.55;;;;;;;12.36;56.31;99995.70;1773407;80;21096;-73
2022/05/03 05:06:51;;;;;;;15.25;7.75;;;;;;;12.42;55.93;99989.26;1773480;80;21034;-71
2022/05/03 05:09:18;;;;;;;11.53;5.83;;;;;;;12.50;55.19;99996.84;1773275;80;21041;-71
2022/05/03 05:11:44;;;;;;;11.83;4.65;;;;;;;12.59;52.65;99993.77;1773555;80;21003;-73
2022/05/03 05:14:11;;;;;;;9.65;5.08;;;;;;;12.64;50.31;100003.65;1773596;80;21272;-72
2022/05/03 05:16:37;;;;;;;9.50;4.70;;;;;;;12.67;50.43;99998.20;1773288;80;21003;-72
2022/05/03 05:19:03;;;;;;;13.98;5.40;;;;;;;12.68;50.45;100006.55;1773506;80;21097;-71
2022/05/03 05:21:31;;;;;;;7.67;4.70;;;;;;;12.69;50.46;100005.59;1773374;80;21113;-72
2022/05/03 05:23:57;;;;;;;12.75;4.65;;;;;;;12.71;50.59;99999.78;1773462;80;20999;-74
2022/05/03 05:26:24;;;;;;;8.63;4.42;;;;;;;12.81;50.46;100002.83;1773414;80;22098;-72
2022/05/03 05:28:53;;;;;;;85.75;30.88;;;;;;;12.99;49.91;99999.77;1773529;80;21029;-71
2022/05/03 05:31:20;;;;;;;10.88;6.28;;;;;;;13.14;49.86;99993.73;1777312;80;21090;-72
2022/05/03 05:33:47;;;;;;;11.75;4.90;;;;;;;13.28;49.60;100000.16;1794634;80;21062;-71
2022/05/03 05:36:13;;;;;;;12.63;5.83;;;;;;;13.40;49.48;99994.23;1724197;83;21062;-72
2022/05/03 05:38:40;;;;;;;11.83;5.35;;;;;;;13.52;48.85;99988.30;1794562;80;21897;-74
2022/05/03 05:41:14;;;;;;;9.48;5.55;;;;;;;13.63;48.42;99993.90;1794970;79;21558;-72
2022/05/03 05:43:42;;;;;;;14.38;4.85;;;;;;;13.83;48.15;99998.64;1794881;80;21022;-73
2022/05/03 05:46:09;;;;;;;16.00;4.62;;;;;;;14.47;47.75;99996.49;1794773;80;21003;-72
2022/05/03 05:48:39;;;;;;;11.03;4.58;;;;;;;15.28;45.33;99995.02;1794834;80;21531;-72
2022/05/03 05:51:06;;;;;;;8.58;4.50;;;;;;;15.95;42.72;99993.27;1794826;79;21192;-72
2022/05/03 05:53:33;;;;;;;10.53;5.17;;;;;;;16.32;42.15;99984.33;1794555;80;20999;-72
2022/05/03 05:56:02;;;;;;;8.58;4.80;;;;;;;16.60;42.14;99981.24;1723807;83;21129;-72
2022/05/03 05:58:29;;;;;;;9.00;5.15;;;;;;;16.80;41.00;99979.51;1723467;82;21579;-73
2022/05/03 06:00:57;;;;;;;10.68;4.78;;;;;;;17.03;40.72;99982.47;1717634;83;21357;-73
2022/05/03 06:03:24;;;;;;;12.43;6.65;;;;;;;17.19;40.28;99984.48;1773244;80;22174;-73
2022/05/03 06:05:51;;;;;;;11.80;5.90;;;;;;;17.29;40.17;99982.90;1773325;80;21559;-72
2022/05/03 06:08:18;;;;;;;8.75;6.10;;;;;;;17.38;39.05;99986.27;1773261;80;21062;-71
2022/05/03 06:10:45;;;;;;;9.90;6.03;;;;;;;17.47;39.22;99986.13;1773286;80;20998;-72
2022/05/03 06:13:13;;;;;;;9.05;5.97;;;;;;;17.53;38.91;99984.39;1773357;80;21057;-72
2022/05/03 06:15:40;;;;;;;10.03;5.85;;;;;;;17.57;38.44;99982.35;1773254;80;21231;-73
2022/05/03 06:18:10;;;;;;;14.95;5.97;;;;;;;17.55;38.83;99981.60;1773463;80;21006;-72
2022/05/03 06:20:36;;;;;;;12.37;5.45;;;;;;;17.59;39.10;99979.11;1773774;80;21018;-72
2022/05/03 06:23:05;;;;;;;9.40;5.80;;;;;;;17.64;38.99;99974.31;1773352;80;21585;-72
2022/05/03 06:25:31;;;;;;;9.88;5.20;;;;;;;17.73;39.06;99972.34;1773309;80;21054;-72
2022/05/03 06:27:58;;;;;;;9.75;5.08;;;;;;;17.80;38.41;99978.95;1773266;80;21221;-70
2022/05/03 06:30:24;;;;;;;10.05;5.30;;;;;;;17.93;38.58;99975.00;1773160;80;21017;-72
2022/05/03 06:32:51;;;;;;;9.00;5.37;;;;;;;18.02;38.59;99966.84;1773636;80;21577;-74
2022/05/03 06:35:19;;;;;;;8.50;4.70;;;;;;;18.08;38.20;99969.05;1773348;80;21814;-71
2022/05/03 06:37:46;;;;;;;12.70;4.75;;;;;;;18.23;37.67;99971.97;1773621;80;21660;-72
2022/05/03 06:40:13;;;;;;;9.38;4.90;;;;;;;18.36;37.93;99972.45;1773262;80;21137;-71
2022/05/03 06:42:40;;;;;;;9.80;4.40;;;;;;;18.42;37.40;99971.49;1773464;80;21049;-73
2022/05/03 06:45:08;;;;;;;13.48;4.60;;;;;;;18.60;37.15;99969.31;1773431;80;21089;-73
2022/05/03 06:47:36;;;;;;;11.97;4.95;;;;;;;18.83;37.19;99974.32;1773355;80;21084;-71
2022/05/03 06:50:04;;;;;;;18.65;5.55;;;;;;;19.08;36.80;99977.36;1773315;80;21010;-73
2022/05/03 06:52:32;;;;;;;16.67;9.45;;;;;;;19.25;36.72;99970.73;1773384;80;21119;-72
2022/05/03 06:54:58;;;;;;;11.00;5.37;;;;;;;19.49;35.97;99976.04;1773114;80;21077;-73
2022/05/03 06:57:25;;;;;;;10.68;4.58;;;;;;;19.63;35.69;99969.64;1773136;80;21066;-72
2022/05/03 06:59:53;;;;;;;11.28;4.70;;;;;;;19.70;35.78;99972.72;1773148;80;21086;-72
2022/05/03 07:02:19;;;;;;;8.28;4.05;;;;;;;19.79;35.48;99972.00;1773223;80;21097;-71
2022/05/03 07:04:47;;;;;;;9.78;4.62;;;;;;;19.82;33.83;99976.25;1773064;80;21310;-72
2022/05/03 07:07:14;;;;;;;11.88;4.42;;;;;;;19.80;33.27;99979.03;1773145;80;21058;-72
2022/05/03 07:09:42;;;;;;;14.13;4.97;;;;;;;19.80;34.13;99975.03;1773323;80;21058;-71
2022/05/03 07:12:10;;;;;;;14.75;5.28;;;;;;;19.98;33.85;99971.89;1773621;80;21109;-73
2022/05/03 07:14:37;;;;;;;10.68;4.58;;;;;;;20.23;33.75;99970.31;1773358;80;21085;-70
2022/05/03 07:17:05;;;;;;;13.30;4.12;;;;;;;20.57;33.20;99970.31;1773375;80;21925;-71
2022/05/03 07:25:04;;;;;;;20.10;4.42;;;;;;;21.43;30.21;99971.72;1773422;80;21081;-71
2022/05/03 07:27:32;;;;;;;11.45;4.08;;;;;;;21.56;29.97;99971.03;1773674;80;21523;-71
2022/05/03 07:29:58;;;;;;;11.20;3.87;;;;;;;21.74;29.80;99963.22;1773205;80;21333;-72
2022/05/03 07:32:25;;;;;;;7.67;2.85;;;;;;;21.98;29.63;99962.44;1773531;80;21626;-71
2022/05/03 07:34:52;;;;;;;9.48;3.15;;;;;;;22.28;28.15;99954.05;1773592;80;21403;-72
2022/05/03 07:37:18;;;;;;;5.65;2.80;;;;;;;22.35;26.86;99956.54;1773308;80;21085;-71
2022/05/03 07:39:45;;;;;;;5.10;2.20;;;;;;;22.34;27.01;99958.88;1773603;80;21002;-71
2022/05/03 07:42:12;;;;;;;6.05;2.15;;;;;;;22.32;25.30;99959.51;1773474;80;21250;-72
2022/05/03 07:44:38;;;;;;;6.50;2.33;;;;;;;22.41;25.00;99959.19;1773339;80;21046;-70
2022/05/03 07:47:07;;;;;;;7.97;2.42;;;;;;;22.45;25.61;99956.56;1773710;80;21033;-72
2022/05/03 07:49:34;;;;;;;6.35;2.33;;;;;;;22.80;25.85;99954.73;1773320;80;21046;-70
2022/05/03 07:52:00;;;;;;;6.03;2.50;;;;;;;23.08;24.80;99950.89;1773236;80;21037;-71
2022/05/03 07:54:27;;;;;;;3.95;2.15;;;;;;;23.08;24.86;99949.55;1773382;80;22211;-72
2022/05/03 07:56:53;;;;;;;4.10;2.50;;;;;;;22.75;24.28;99954.31;1773294;80;21089;-71
2022/05/03 07:59:23;;;;;;;3.75;2.20;;;;;;;22.18;24.73;99949.13;1778977;80;21129;-72
2022/05/03 08:01:49;;;;;;;7.42;2.50;;;;;;;21.82;25.03;99950.02;1779301;80;21078;-73
2022/05/03 08:04:15;;;;;;;10.55;2.50;;;;;;;21.63;25.50;99949.92;1779385;80;21135;-72
2022/05/03 08:06:42;;;;;;;4.83;2.25;;;;;;;21.46;25.34;99946.84;1778998;80;21170;-72
2022/05/03 08:09:08;;;;;;;5.85;2.25;;;;;;;21.58;25.85;99952.50;1779288;80;21050;-72
2022/05/03 08:11:36;;;;;;;5.20;2.20;;;;;;;21.40;25.23;99952.73;1778964;80;21089;-71
2022/05/03 08:14:04;;;;;;;3.80;2.00;;;;;;;21.08;25.82;99948.23;1779112;80;21084;-72
2022/05/03 08:16:32;;;;;;;5.85;2.30;;;;;;;20.95;26.42;99935.52;1779173;80;21044;-73
2022/05/03 08:18:59;;;;;;;6.08;2.30;;;;;;;20.81;26.43;99948.70;1751052;80;21128;-73
2022/05/03 08:21:28;;;;;;;7.05;2.50;;;;;;;20.73;26.83;99943.99;1778968;80;21077;-72
2022/05/03 08:23:55;;;;;;;8.15;2.58;;;;;;;20.81;26.80;99939.33;1779338;80;21032;-72
2022/05/03 08:26:21;;;;;;;7.00;2.58;;;;;;;21.13;26.98;99946.02;1779170;80;20990;-72
2022/05/03 08:28:48;;;;;;;3.95;2.58;;;;;;;21.68;26.16;99939.66;1779337;80;21076;-71
2022/05/03 08:31:15;;;;;;;5.78;2.40;;;;;;;22.23;25.85;99932.16;1774520;80;21225;-73
2022/05/03 08:33:44;;;;;;;6.05;2.30;;;;;;;22.83;25.02;99926.25;1748247;82;21082;-73
2022/05/03 08:36:11;;;;;;;4.28;2.40;;;;;;;23.30;24.26;99929.58;1748489;82;21053;-72
2022/05/03 08:44:08;;;;;;;9.93;2.27;;;;;;;23.30;23.60;99926.89;1748292;82;21757;-71
2022/05/03 08:46:36;;;;;;;3.12;2.00;;;;;;;23.54;22.62;99915.69;1748573;82;20986;-72
2022/05/03 08:49:05;;;;;;;6.22;2.30;;;;;;;23.64;22.82;99907.09;1748556;82;21038;-71
2022/05/03 08:51:32;;;;;;;6.00;2.47;;;;;;;23.86;22.86;99899.70;1748567;82;21597;-72
2022/05/03 08:54:00;;;;;;;6.78;2.10;;;;;;;23.92;23.12;99900.94;1748311;81;21101;-71
2022/05/03 08:56:27;;;;;;;7.97;2.00;;;;;;;24.06;22.45;99896.41;1748369;82;21099;-72
2022/05/03 08:58:55;;;;;;;4.60;1.98;;;;;;;23.94;22.00;99896.27;1744453;82;21542;-71
2022/05/03 09:01:21;;;;;;;3.77;1.98;;;;;;;23.90;22.01;99902.42;1742449;82;22214;-71
2022/05/03 09:03:48;;;;;;;6.17;1.90;;;;;;;23.98;20.99;99901.20;1742605;82;21049;-72
2022/05/03 09:06:15;;;;;;;8.48;2.40;;;;;;;23.90;20.86;99899.73;1742712;82;21541;-73
2022/05/03 09:08:41;;;;;;;4.30;1.70;;;;;;;23.87;21.36;99894.66;1742711;82;21336;-71
2022/05/03 09:12:29;;;;;;;3.77;1.90;;;;;;;24.12;21.16;99886.91;1796801;79;23233;-72
2022/05/03 09:14:59;;;;;;;5.78;2.08;;;;;;;24.13;21.08;99873.28;1756494;81;21092;-71
2022/05/03 09:17:43;;;;;;;5.55;1.95;;;;;;;24.68;20.66;99872.37;1756708;81;21613;-71
2022/05/03 09:25:49;;;;;;;7.22;1.85;;;;;;;24.52;21.09;99854.22;1756769;81;21080;-72
2022/05/03 09:28:18;;;;;;;6.92;2.22;;;;;;;24.02;21.28;99857.38;1756422;81;21081;-73
2022/05/03 09:30:47;;;;;;;7.75;1.87;;;;;;;23.70;21.67;99860.47;1685964;84;21228;-72
2022/05/03 09:33:17;;;;;;;2.83;1.80;;;;;;;23.31;22.46;99852.53;1715099;83;21585;-74
2022/05/03 09:35:44;;;;;;;3.67;1.65;;;;;;;23.20;22.48;99853.04;1720278;83;21566;-72
2022/05/03 09:38:10;;;;;;;2.50;1.70;;;;;;;23.41;22.39;99847.97;1720332;83;21278;-72
2022/05/03 09:40:41;;;;;;;6.58;1.80;;;;;;;23.58;22.53;99837.81;1720358;83;21084;-71
2022/05/03 09:43:08;;;;;;;9.30;2.02;;;;;;;23.57;22.37;99833.91;1720902;83;21068;-72
2022/05/03 09:45:36;;;;;;;4.62;2.15;;;;;;;23.33;22.66;99837.09;1720294;83;21017;-72
2022/05/03 09:48:05;;;;;;;5.42;1.90;;;;;;;23.04;23.04;99824.59;1720774;83;21022;-72
2022/05/03 09:50:41;;;;;;;4.25;1.85;;;;;;;22.94;23.58;99827.27;1720328;83;21017;-72
2022/05/03 09:53:21;;;;;;;12.13;2.22;;;;;;;23.05;23.50;99826.27;1710352;83;21071;-74
2022/05/03 09:55:48;;;;;;;7.45;2.15;;;;;;;23.12;23.51;99819.83;1691552;84;21134;-72
2022/05/03 09:58:19;;;;;;;10.72;2.20;;;;;;;23.00;23.63;99821.84;1691436;84;21115;-73
2022/05/03 10:00:48;;;;;;;4.78;1.60;;;;;;;22.71;23.75;99818.67;1691569;84;21057;-74
2022/05/03 10:03:14;;;;;;;5.83;1.92;;;;;;;22.52;23.47;99814.64;1691599;84;21607;-71
2022/05/03 10:05:42;;;;;;;3.15;1.85;;;;;;;22.50;23.56;99809.91;1691404;83;21438;-74
2022/05/03 10:08:16;;;;;;;3.20;1.80;;;;;;;22.17;24.45;99807.95;1691627;84;21204;-73
2022/05/03 10:10:43;;;;;;;3.92;2.00;;;;;;;22.16;24.38;99810.30;1687309;84;21627;-73
2022/05/03 10:13:08;;;;;;;;;;;;;;;22.27;24.64;99799.94;1681297;85;21021;-72
2022/05/03 10:21:30;;;;;;;2.92;1.72;;;;;;;22.71;24.20;99783.78;1678833;85;21554;-72
2022/05/03 10:24:06;;;;;;;4.85;1.90;;;;;;;23.10;23.56;99783.73;1678604;85;21061;-72
2022/05/03 10:27:05;;;;;;;11.50;2.25;;;;;;;23.74;22.95;99775.81;1678185;85;21097;-73
2022/05/03 10:29:36;;;;;;;5.60;2.10;;;;;;;24.02;23.03;99774.84;1678308;85;21587;-73
2022/05/03 10:32:14;;;;;;;5.50;2.02;;;;;;;23.82;22.13;99772.77;1678464;85;21070;-71
2022/05/03 10:34:56;;;;;;;5.03;2.00;;;;;;;23.78;22.17;99763.80;1678570;85;21138;-73
2022/05/03 10:37:34;;;;;;;5.42;1.95;;;;;;;24.00;21.70;99768.77;1678322;85;21743;-72
2022/05/03 10:40:09;;;;;;;4.58;1.90;;;;;;;24.12;21.94;99758.63;1678546;85;21038;-72
2022/05/03 10:42:35;;;;;;;5.85;1.80;;;;;;;23.71;21.68;99760.00;1703726;83;21327;-72
2022/05/03 10:45:11;;;;;;;7.03;1.87;;;;;;;23.40;22.20;99747.70;1713686;83;21649;-71
2022/05/03 10:47:54;;;;;;;5.60;1.98;;;;;;;23.44;21.85;99756.30;1713312;83;22168;-72
2022/05/03 10:50:27;;;;;;;4.53;1.70;;;;;;;23.52;21.74;99750.20;1713191;83;22222;-72
2022/05/03 10:53:02;;;;;;;3.40;1.85;;;;;;;23.45;21.60;99755.33;1713305;82;21101;-72
2022/05/03 10:55:41;;;;;;;5.12;2.67;;;;;;;23.35;21.80;99741.07;1713280;82;21561;-73
2022/05/03 10:58:26;;;;;;;;;;;;;;;23.32;22.08;99732.81;1683785;83;21590;-71
2022/05/03 11:01:21;;;;;;;4.97;2.25;;;;;;;23.29;22.53;99734.47;1713471;83;21111;-72
2022/05/03 11:04:01;;;;;;;3.25;1.95;;;;;;;23.15;22.95;99729.08;1713057;82;21122;-71
2022/05/03 11:06:34;;;;;;;6.15;2.52;;;;;;;23.03;23.03;99734.30;1713157;82;21069;-72
2022/05/03 11:11:46;;;;;;;5.75;1.82;;;;;;;23.17;22.87;99723.06;1718863;82;21053;-72
2022/05/03 11:14:22;;;;;;;5.80;1.75;;;;;;;23.14;23.38;99731.40;1726237;82;21167;-73
2022/05/03 11:17:12;;;;;;;6.50;2.00;;;;;;;22.99;22.68;99726.17;1725934;83;20994;-72
2022/05/03 11:19:58;;;;;;;4.13;1.87;;;;;;;22.77;22.66;99717.42;1726358;82;21617;-72
2022/05/03 11:22:31;;;;;;;5.22;2.02;;;;;;;22.64;23.09;99719.59;1725906;82;21399;-72
2022/05/03 11:24:59;;;;;;;6.85;2.27;;;;;;;22.64;22.97;99704.83;1726061;83;21038;-72
2022/05/03 11:27:27;;;;;;;8.88;2.42;;;;;;;22.66;23.23;99709.56;1726095;83;21193;-72
2022/05/03 11:30:08;;;;;;;10.32;2.25;;;;;;;22.65;22.92;99700.30;1726105;82;21550;-72
2022/05/03 11:32:39;;;;;;;8.45;2.45;;;;;;;22.53;22.88;99706.34;1679909;84;21121;-72
2022/05/03 11:35:09;;;;;;;16.17;3.17;;;;;;;22.31;23.45;99700.27;1658281;86;21014;-71
2022/05/03 11:37:48;;;;;;;14.65;2.98;;;;;;;22.08;23.61;99698.84;1658452;86;21571;-73
2022/05/03 11:40:15;;;;;;;4.50;2.47;;;;;;;21.81;24.21;99696.37;1658102;86;21260;-71
2022/05/03 11:42:44;;;;;;;5.95;2.47;;;;;;;21.68;24.25;99687.75;1658467;86;21041;-72
2022/05/03 11:45:12;;;;;;;4.42;2.20;;;;;;;21.74;24.40;99684.03;1658119;86;22111;-73
2022/05/03 11:47:45;;;;;;;4.47;2.50;;;;;;;21.85;24.53;99692.41;1658254;86;21081;-73
2022/05/03 11:55:58;;;;;;;4.70;2.42;;;;;;;21.89;24.73;99689.81;1658465;86;21060;-71
2022/05/03 11:58:15;;;;;;;5.37;2.37;;;;;;;21.88;24.53;99688.59;1647386;87;21851;-71
2022/05/03 12:00:47;;;;;;;6.72;2.55;;;;;;;21.84;24.31;99695.25;1645793;87;21052;-74
2022/05/03 12:03:13;;;;;;;3.95;2.10;;;;;;;21.70;24.26;99701.86;1691730;84;21128;-72
2022/05/03 12:06:02;;;;;;;5.53;2.72;;;;;;;21.44;25.80;99703.72;1658184;86;21109;-72
2022/05/03 12:08:29;;;;;;;6.65;2.33;;;;;;;21.30;26.88;99698.68;1657710;86;21596;-71
2022/05/03 12:10:56;;;;;;;3.67;2.50;;;;;;;21.28;27.15;99686.79;1658647;86;21046;-71
2022/05/03 12:13:28;;;;;;;3.92;2.22;;;;;;;21.44;27.25;99685.43;1653429;86;21078;-72
2022/05/03 12:16:03;;;;;;;7.90;2.47;;;;;;;21.67;27.47;99682.02;1653542;86;21037;-73
2022/05/03 12:18:35;;;;;;;10.03;2.80;;;;;;;21.88;27.65;99678.75;1686499;85;21127;-72
2022/05/03 12:21:10;;;;;;;4.60;2.40;;;;;;;22.10;26.21;99671.40;1686411;85;21085;-72
2022/05/03 12:23:48;;;;;;;6.03;2.58;;;;;;;22.24;26.03;99672.83;1686548;85;21109;-72
2022/05/03 12:26:27;;;;;;;30.80;6.95;;;;;;;22.33;25.90;99670.12;1686335;85;22158;-71
2022/05/03 12:28:57;;;;;;;8.58;2.67;;;;;;;22.29;25.32;99666.07;1686349;85;21124;-72
2022/05/03 12:31:34;;;;;;;5.47;2.33;;;;;;;22.18;25.36;99663.00;1660298;85;21196;-71
2022/05/03 12:33:59;;;;;;;3.50;2.72;;;;;;;22.13;26.14;99656.36;1720463;82;21081;-72
2022/05/03 12:36:41;;;;;;;3.80;2.25;;;;;;;22.09;26.24;99663.02;1720614;83;21062;-73